メインページ
METAR-TAF:

METAR-TAF

空港 :

モスクワ-シェレメーチエヴォ, ロシア

シェレメーチエヴォ国際空港

緯度: 55-59N, 経度: 037-30E, 海抜: 190m

現時点の気象観測

当レポートは39分前の23:00(UTC)に作成
変向風 2kt
気温 -1°C
湿度 100%
気圧 1006 hPa
視程10km以上
1,500メートル以下は雲なし、積乱雲なし

METAR: UUEE 232300Z VRB01MPS CAVOK M01/M01 Q1006 R24R/CLRD62 NOSIG

時間: 02:39 (23:39 UTC)

予報

当レポートは3時間45分前の19:54(UTC)に作成
予報は23日の 21時(UTC)から 24日の 21時(UTC)まで有効
西/南西の風 6kt
視程10km以上
高度1500ftの雲は散在している
23日の 21時(UTC)から 24日の 04時(UTC)まで一時的に
変向風 2kt
視程: 1200m
高度400ftの雲は散在している
24日の 04時(UTC)から 24日の 06時(UTC)まで徐々に
西/北西の風 12kt
24日の 08時(UTC)から 24日の 18時(UTC)まで一時的に
高度700ftの千切れ雲あり
高度1500ftの雲は散在している, 積乱雲.
弱いにわか雨

TAF: UUEE 231954Z 2321/2421 24003MPS 9999 SCT015 TX08/2412Z TNM01/2403Z TEMPO 2321/2404 VRB01MPS 1200 BR SCT004 BECMG 2404/2406 30006MPS TEMPO 2408/2418 -SHRA BKN007 SCT015CB

4,000以上の空港の気象観測と天気予報(METAR報とTAF報)

利用可能な観測所は地図上に黄色い丸と赤い丸で示す。

丸の上にカーソルを重ねると観測所名を参照できる。

次にクリックすると気象観測と天気予報を参照できる。

マップの切り替え:黒色「×」印の緑ボタンをクリックして拡大、「-」印の緑ボタンをクリックして縮小、緑色の三角印をクリックして隣りの地図に切り替え


METAR-TAF: